createdAt,value
2023-03-26T00:01:10.665Z,2.20
2023-03-26T00:03:39.190Z,2.17
2023-03-26T00:06:10.626Z,2.40
2023-03-26T00:08:38.800Z,2.15
2023-03-26T00:13:33.689Z,2.20
2023-03-26T00:16:01.811Z,2.28
2023-03-26T00:20:59.815Z,2.28
2023-03-26T00:23:27.362Z,2.17
2023-03-26T00:25:56.330Z,2.17
2023-03-26T00:28:24.389Z,2.08
2023-03-26T00:30:58.213Z,1.90
2023-03-26T00:33:25.439Z,2.20
2023-03-26T00:35:56.820Z,2.30
2023-03-26T00:38:24.202Z,2.20
2023-03-26T00:40:51.853Z,2.28
2023-03-26T00:43:20.124Z,2.00
2023-03-26T00:45:54.394Z,2.13
2023-03-26T00:48:31.380Z,2.20
2023-03-26T00:51:06.373Z,1.98
2023-03-26T00:56:00.991Z,2.20
2023-03-26T00:58:30.050Z,2.00
2023-03-26T01:00:58.372Z,1.77
2023-03-26T01:03:29.285Z,2.30
2023-03-26T01:05:58.683Z,1.95
2023-03-26T01:08:29.066Z,1.98
2023-03-26T01:11:03.063Z,2.00
2023-03-26T01:13:32.541Z,2.10
2023-03-26T01:16:01.988Z,2.05
2023-03-26T01:18:33.976Z,1.92
2023-03-26T01:21:05.509Z,1.90
2023-03-26T01:23:59.757Z,1.88
2023-03-26T01:26:37.761Z,1.90
2023-03-26T01:29:08.354Z,1.85
2023-03-26T01:31:47.786Z,1.95
2023-03-26T01:34:21.446Z,1.80
2023-03-26T01:36:51.763Z,1.90
2023-03-26T01:39:21.998Z,2.00
2023-03-26T01:41:51.979Z,2.17
2023-03-26T01:44:25.278Z,1.85
2023-03-26T01:46:52.994Z,1.98
2023-03-26T01:49:20.493Z,1.95
2023-03-26T01:51:48.455Z,1.73
2023-03-26T01:54:17.530Z,2.10
2023-03-26T01:56:51.082Z,1.83
2023-03-26T01:59:18.310Z,1.90
2023-03-26T02:01:54.891Z,1.95
2023-03-26T02:04:26.996Z,1.63
2023-03-26T02:07:06.214Z,1.85
2023-03-26T02:09:37.065Z,2.10
2023-03-26T02:12:04.964Z,1.80
2023-03-26T02:14:32.693Z,1.85
2023-03-26T02:17:00.836Z,1.88
2023-03-26T02:21:59.763Z,1.73
2023-03-26T02:24:27.074Z,1.50
2023-03-26T02:26:54.580Z,1.90
2023-03-26T02:29:22.287Z,2.00
2023-03-26T02:31:50.138Z,1.60
2023-03-26T02:34:17.860Z,1.90
2023-03-26T02:36:45.122Z,1.77
2023-03-26T02:39:14.421Z,1.80
2023-03-26T02:41:41.691Z,2.10
2023-03-26T02:44:08.934Z,2.00
2023-03-26T02:46:36.403Z,1.90
2023-03-26T02:49:03.648Z,2.00
2023-03-26T02:51:34.838Z,1.90
2023-03-26T02:54:02.652Z,1.60
2023-03-26T02:56:30.008Z,1.70
2023-03-26T02:58:57.238Z,1.90
2023-03-26T03:01:24.519Z,1.70
2023-03-26T03:03:51.773Z,1.63
2023-03-26T03:06:19.223Z,1.58
2023-03-26T03:08:47.066Z,1.88
2023-03-26T03:11:18.631Z,1.55
2023-03-26T03:13:46.418Z,1.80
2023-03-26T03:16:13.711Z,1.60
2023-03-26T03:18:40.955Z,1.83
2023-03-26T03:21:08.241Z,1.73
2023-03-26T03:23:35.523Z,1.80
2023-03-26T03:26:02.756Z,1.90
2023-03-26T03:28:30.610Z,1.77
2023-03-26T03:30:57.893Z,1.80
2023-03-26T03:33:25.277Z,1.60
2023-03-26T03:35:52.802Z,1.83
2023-03-26T03:38:20.257Z,2.10
2023-03-26T03:40:50.182Z,1.60
2023-03-26T03:43:19.602Z,1.88
2023-03-26T03:45:47.459Z,1.80
2023-03-26T03:48:14.736Z,1.77
2023-03-26T03:50:41.980Z,1.40
2023-03-26T03:53:09.203Z,1.40
2023-03-26T03:55:38.295Z,1.50
2023-03-26T03:58:06.085Z,1.85
2023-03-26T04:00:33.281Z,1.60
2023-03-26T04:03:06.235Z,1.53
2023-03-26T04:05:34.078Z,1.88
2023-03-26T04:08:01.393Z,1.58
2023-03-26T04:10:31.116Z,1.60
2023-03-26T04:12:58.379Z,1.90
2023-03-26T04:15:25.870Z,1.50
2023-03-26T04:17:53.120Z,1.50
2023-03-26T04:20:20.977Z,1.67
2023-03-26T04:22:48.223Z,1.70
2023-03-26T04:25:16.414Z,1.70
2023-03-26T04:30:15.056Z,1.45
2023-03-26T04:32:43.101Z,1.55
2023-03-26T04:35:16.681Z,1.42
2023-03-26T04:37:46.206Z,1.60
2023-03-26T04:40:18.384Z,1.50
2023-03-26T04:42:46.351Z,1.50
2023-03-26T04:47:40.832Z,1.40
2023-03-26T04:50:09.444Z,1.83
2023-03-26T04:52:37.114Z,1.58
2023-03-26T04:55:04.618Z,1.60
2023-03-26T04:57:38.104Z,1.50
2023-03-26T05:00:15.089Z,1.70
2023-03-26T05:02:42.858Z,1.60
2023-03-26T05:05:10.527Z,1.70
2023-03-26T05:07:37.811Z,1.55
2023-03-26T05:10:05.760Z,1.55
2023-03-26T05:12:33.094Z,1.50
2023-03-26T05:15:00.410Z,1.40
2023-03-26T05:17:30.982Z,1.77
2023-03-26T05:19:58.424Z,1.58
2023-03-26T05:22:25.746Z,1.73
2023-03-26T05:24:52.975Z,1.60
2023-03-26T05:27:20.259Z,1.50
2023-03-26T05:29:47.522Z,1.65
2023-03-26T05:32:14.816Z,1.50
2023-03-26T05:34:42.292Z,1.67
2023-03-26T05:37:09.533Z,1.70
2023-03-26T05:39:37.069Z,1.60
2023-03-26T05:42:04.374Z,1.70
2023-03-26T05:44:31.612Z,1.80
2023-03-26T05:46:58.816Z,1.40
2023-03-26T05:49:26.119Z,1.40
2023-03-26T05:51:55.048Z,1.70
2023-03-26T05:54:22.765Z,1.80
2023-03-26T05:56:50.016Z,1.37
2023-03-26T05:59:17.304Z,1.50
2023-03-26T06:01:44.835Z,2.00
2023-03-26T06:04:18.609Z,1.75
2023-03-26T06:06:45.919Z,1.60
2023-03-26T06:09:13.298Z,1.80
2023-03-26T06:11:41.769Z,1.67
2023-03-26T06:14:09.079Z,1.95
2023-03-26T06:16:36.391Z,1.50
2023-03-26T06:19:03.686Z,2.03
2023-03-26T06:21:31.354Z,1.67
2023-03-26T06:23:58.715Z,1.60
2023-03-26T06:26:26.016Z,1.50
2023-03-26T06:28:53.248Z,1.75
2023-03-26T06:31:20.922Z,1.53
2023-03-26T06:33:48.861Z,1.80
2023-03-26T06:36:16.217Z,1.58
2023-03-26T06:38:43.512Z,1.95
2023-03-26T06:41:11.071Z,1.77
2023-03-26T06:43:39.119Z,1.60
2023-03-26T06:46:06.650Z,1.80
2023-03-26T06:48:33.871Z,1.67
2023-03-26T06:51:01.116Z,2.10
2023-03-26T06:53:28.371Z,2.07
2023-03-26T06:55:55.676Z,1.70
2023-03-26T06:58:22.950Z,1.80
2023-03-26T07:00:54.401Z,1.60
2023-03-26T07:03:21.988Z,1.70
2023-03-26T07:05:49.584Z,1.77
2023-03-26T07:08:16.798Z,1.50
2023-03-26T07:10:44.058Z,1.30
2023-03-26T07:13:11.335Z,1.60
2023-03-26T07:15:38.628Z,1.43
2023-03-26T07:18:06.137Z,1.63
2023-03-26T07:20:33.583Z,1.67
2023-03-26T07:23:01.061Z,1.73
2023-03-26T07:25:28.416Z,2.05
2023-03-26T07:28:06.562Z,1.40
2023-03-26T07:30:47.764Z,1.60
2023-03-26T07:33:19.320Z,1.55
2023-03-26T07:36:06.282Z,1.48
2023-03-26T07:38:52.152Z,1.50
2023-03-26T07:41:45.775Z,1.52
2023-03-26T07:44:39.368Z,1.80
2023-03-26T07:47:18.497Z,1.55
2023-03-26T07:49:45.870Z,1.60
2023-03-26T07:52:13.302Z,1.80
2023-03-26T07:54:40.671Z,1.83
2023-03-26T07:57:14.255Z,1.75
2023-03-26T07:59:44.697Z,1.75
2023-03-26T08:02:30.943Z,1.70
2023-03-26T08:05:10.340Z,1.50
2023-03-26T08:07:45.108Z,1.52
2023-03-26T08:10:18.634Z,1.65
2023-03-26T08:12:54.209Z,1.60
2023-03-26T08:15:40.864Z,1.58
2023-03-26T08:18:11.157Z,1.55
2023-03-26T08:20:44.234Z,1.90
2023-03-26T08:23:20.960Z,1.70
2023-03-26T08:25:59.452Z,1.63
2023-03-26T08:28:49.708Z,1.83
2023-03-26T08:31:19.411Z,1.40
2023-03-26T08:33:46.871Z,1.73
2023-03-26T08:36:14.107Z,1.40
2023-03-26T08:38:41.311Z,1.37
2023-03-26T08:41:11.581Z,1.80
2023-03-26T08:43:57.855Z,1.73
2023-03-26T08:46:34.332Z,1.60
2023-03-26T08:49:01.861Z,1.95
2023-03-26T08:51:52.107Z,1.70
2023-03-26T08:54:31.524Z,1.70
2023-03-26T08:57:17.564Z,1.65
2023-03-26T09:00:05.932Z,1.80
2023-03-26T09:02:44.369Z,1.40
2023-03-26T09:05:17.751Z,1.90
2023-03-26T09:07:44.979Z,1.73
2023-03-26T09:10:21.512Z,1.43
2023-03-26T09:12:49.681Z,2.00
2023-03-26T09:17:58.059Z,2.00
2023-03-26T09:20:45.143Z,1.80
2023-03-26T09:23:15.495Z,1.83
2023-03-26T09:25:57.572Z,1.52
2023-03-26T09:28:44.108Z,1.90
2023-03-26T09:31:19.388Z,1.88
2023-03-26T09:33:53.766Z,1.30
2023-03-26T09:36:23.196Z,1.90
2023-03-26T09:38:54.671Z,1.75
2023-03-26T09:41:40.728Z,1.70
2023-03-26T09:44:26.876Z,1.42
2023-03-26T09:47:13.013Z,1.45
2023-03-26T09:49:52.414Z,1.80
2023-03-26T09:52:19.620Z,1.80
2023-03-26T09:54:56.023Z,1.63
2023-03-26T09:57:26.142Z,1.77
2023-03-26T10:00:10.282Z,1.67
2023-03-26T10:02:56.435Z,1.80
2023-03-26T10:05:42.570Z,1.40
2023-03-26T10:08:10.387Z,1.88
2023-03-26T10:10:56.276Z,1.85
2023-03-26T10:13:26.760Z,1.50
2023-03-26T10:15:57.534Z,1.70
2023-03-26T10:18:30.963Z,2.10
2023-03-26T10:21:07.199Z,1.90
2023-03-26T10:23:34.413Z,1.80
2023-03-26T10:26:07.721Z,2.10
2023-03-26T10:29:02.273Z,2.22
2023-03-26T10:31:29.487Z,2.30
2023-03-26T10:34:28.351Z,6.38
2023-03-26T10:36:56.717Z,5.43
2023-03-26T10:39:44.146Z,6.38
2023-03-26T10:42:30.341Z,6.20
2023-03-26T10:45:07.632Z,6.40
2023-03-26T10:48:02.625Z,6.03
2023-03-26T10:50:33.055Z,5.53
2023-03-26T10:53:12.252Z,5.63
2023-03-26T10:55:41.099Z,6.50
2023-03-26T10:58:22.601Z,6.60
2023-03-26T11:01:08.686Z,6.03
2023-03-26T11:03:52.144Z,5.85
2023-03-26T11:06:25.747Z,6.10
2023-03-26T11:09:05.277Z,5.80
2023-03-26T11:11:44.953Z,5.75
2023-03-26T11:14:24.642Z,4.57
2023-03-26T11:17:39.657Z,5.05
2023-03-26T11:20:11.624Z,4.60
2023-03-26T11:22:38.865Z,4.82
2023-03-26T11:25:18.321Z,4.43
2023-03-26T11:27:45.731Z,4.15
2023-03-26T11:30:22.521Z,4.30
2023-03-26T11:32:56.053Z,4.72
2023-03-26T11:35:43.592Z,4.18
2023-03-26T11:38:27.352Z,4.07
2023-03-26T11:40:56.018Z,4.03
2023-03-26T11:43:27.107Z,4.15
2023-03-26T11:45:54.417Z,3.72
2023-03-26T11:48:24.700Z,3.70
2023-03-26T11:50:56.212Z,3.60
2023-03-26T11:53:29.037Z,12.40
2023-03-26T11:56:02.416Z,4.68
2023-03-26T11:58:31.174Z,3.95
2023-03-26T12:00:59.140Z,4.25
2023-03-26T12:03:26.442Z,4.45
2023-03-26T12:05:59.143Z,6.00
2023-03-26T12:08:31.716Z,7.72
2023-03-26T12:11:04.710Z,8.13
2023-03-26T12:13:41.880Z,7.03
2023-03-26T12:16:17.251Z,7.60
2023-03-26T12:18:45.672Z,6.03
2023-03-26T12:21:19.837Z,6.18
2023-03-26T12:24:08.516Z,6.13
2023-03-26T12:26:39.492Z,6.13
2023-03-26T12:29:13.811Z,5.65
2023-03-26T12:31:56.367Z,5.20
2023-03-26T12:34:34.760Z,4.50
2023-03-26T12:37:03.602Z,8.40
2023-03-26T12:40:10.698Z,5.45
2023-03-26T12:44:50.406Z,5.30
2023-03-26T12:45:22.399Z,5.38
2023-03-26T12:48:00.104Z,5.05
2023-03-26T12:50:46.262Z,5.30
2023-03-26T12:53:31.977Z,4.80
2023-03-26T12:56:07.701Z,5.03
2023-03-26T12:58:44.156Z,5.07
2023-03-26T13:01:16.741Z,4.68
2023-03-26T13:04:03.464Z,5.03
2023-03-26T13:06:30.776Z,4.60
2023-03-26T13:09:13.377Z,4.57
2023-03-26T13:11:40.589Z,4.00
2023-03-26T13:14:14.042Z,4.07
2023-03-26T13:16:52.555Z,4.35
2023-03-26T13:19:46.251Z,4.10
2023-03-26T13:22:27.123Z,4.13
2023-03-26T13:25:04.143Z,4.32
2023-03-26T13:27:45.889Z,4.15
2023-03-26T13:30:19.135Z,4.05
2023-03-26T13:32:58.855Z,3.65
2023-03-26T13:36:14.691Z,3.75
2023-03-26T13:38:58.917Z,3.70
2023-03-26T13:41:34.261Z,3.70
2023-03-26T13:44:10.602Z,3.63
2023-03-26T13:46:41.755Z,3.70
2023-03-26T13:49:09.009Z,3.60
2023-03-26T13:51:43.581Z,3.78
2023-03-26T13:54:13.787Z,3.92
2023-03-26T13:56:43.482Z,3.63
2023-03-26T13:59:16.911Z,4.05
2023-03-26T14:01:52.504Z,4.20
2023-03-26T14:04:24.335Z,3.58
2023-03-26T14:07:13.479Z,3.35
2023-03-26T14:10:00.755Z,3.50
2023-03-26T14:12:40.494Z,3.38
2023-03-26T14:15:14.653Z,3.47
2023-03-26T14:17:49.388Z,3.20
2023-03-26T14:20:37.757Z,3.17
2023-03-26T14:23:17.373Z,3.33
2023-03-26T14:26:04.161Z,3.15
2023-03-26T14:28:38.286Z,3.10
2023-03-26T14:31:20.740Z,3.20
2023-03-26T14:34:11.447Z,3.17
2023-03-26T14:37:11.102Z,2.90
2023-03-26T14:39:52.990Z,3.20
2023-03-26T14:42:26.252Z,2.78
2023-03-26T14:45:25.708Z,2.65
2023-03-26T14:48:13.904Z,2.13
2023-03-26T14:51:00.104Z,1.90
2023-03-26T14:53:42.212Z,2.03
2023-03-26T14:56:09.424Z,1.70
2023-03-26T14:58:58.091Z,1.48
2023-03-26T15:01:29.847Z,1.80
2023-03-26T15:04:15.968Z,1.48
2023-03-26T15:07:01.534Z,1.50
2023-03-26T15:09:49.120Z,3.55
2023-03-26T15:12:25.642Z,2.50
2023-03-26T15:15:11.721Z,2.47
2023-03-26T15:17:54.306Z,2.50
2023-03-26T15:20:40.591Z,3.35
2023-03-26T15:23:07.833Z,2.85
2023-03-26T15:25:35.070Z,2.70
2023-03-26T15:28:20.906Z,2.90
2023-03-26T15:30:51.227Z,3.42
2023-03-26T15:33:44.254Z,2.88
2023-03-26T15:36:11.473Z,2.72
2023-03-26T15:38:48.450Z,2.70
2023-03-26T15:41:21.793Z,2.45
2023-03-26T15:46:33.478Z,2.90
2023-03-26T15:49:16.743Z,2.65
2023-03-26T15:51:54.444Z,2.78
2023-03-26T15:54:23.107Z,2.40
2023-03-26T15:57:10.753Z,2.42
2023-03-26T15:59:43.973Z,2.65
2023-03-26T16:02:27.818Z,3.25
2023-03-26T16:05:05.849Z,3.53
2023-03-26T16:10:08.409Z,3.58
2023-03-26T16:12:47.166Z,3.20
2023-03-26T16:15:21.098Z,3.00
2023-03-26T16:18:06.828Z,3.05
2023-03-26T16:20:35.391Z,2.80
2023-03-26T16:23:06.192Z,3.03
2023-03-26T16:25:34.004Z,3.25
2023-03-26T16:28:21.217Z,2.88
2023-03-26T16:31:10.650Z,2.53
2023-03-26T16:34:04.752Z,3.07
2023-03-26T16:36:35.107Z,2.85
2023-03-26T16:39:05.569Z,2.80
2023-03-26T16:41:38.694Z,3.13
2023-03-26T16:44:27.710Z,3.17
2023-03-26T16:47:08.461Z,2.58
2023-03-26T16:50:08.831Z,2.88
2023-03-26T16:52:42.810Z,2.95
2023-03-26T16:55:22.429Z,3.30
2023-03-26T16:58:03.527Z,3.08
2023-03-26T17:00:35.625Z,2.78
2023-03-26T17:03:21.597Z,3.13
2023-03-26T17:05:57.680Z,3.05
2023-03-26T17:08:37.754Z,2.95
2023-03-26T17:11:18.119Z,2.97
2023-03-26T17:14:06.635Z,2.70
2023-03-26T17:16:54.107Z,3.08
2023-03-26T17:19:43.638Z,3.42
2023-03-26T17:22:34.229Z,2.85
2023-03-26T17:25:20.496Z,2.90
2023-03-26T17:27:50.829Z,3.05
2023-03-26T17:30:24.913Z,3.25
2023-03-26T17:32:58.923Z,2.72
2023-03-26T17:35:46.520Z,3.17
2023-03-26T17:38:26.663Z,2.58
2023-03-26T17:40:55.529Z,2.97
2023-03-26T17:43:41.047Z,2.90
2023-03-26T17:46:26.801Z,2.63
2023-03-26T17:49:02.178Z,2.75
2023-03-26T17:51:32.059Z,2.70
2023-03-26T17:53:59.917Z,3.25
2023-03-26T17:56:30.279Z,2.85
2023-03-26T17:59:12.182Z,2.88
2023-03-26T18:01:44.108Z,2.80
2023-03-26T18:04:25.899Z,2.90
2023-03-26T18:07:14.222Z,2.75
2023-03-26T18:09:57.130Z,2.85
2023-03-26T18:12:24.359Z,2.50
2023-03-26T18:15:03.191Z,2.58
2023-03-26T18:17:32.879Z,2.80
2023-03-26T18:20:07.353Z,2.70
2023-03-26T18:22:36.847Z,2.90
2023-03-26T18:25:04.362Z,2.67
2023-03-26T18:27:39.846Z,2.78
2023-03-26T18:30:18.958Z,2.83
2023-03-26T18:33:03.141Z,2.78
2023-03-26T18:35:44.561Z,2.40
2023-03-26T18:38:35.855Z,2.65
2023-03-26T18:41:08.013Z,2.60
2023-03-26T18:43:44.613Z,2.20
2023-03-26T18:46:14.193Z,2.33
2023-03-26T18:48:41.482Z,2.50
2023-03-26T18:51:08.950Z,2.20
2023-03-26T18:53:38.710Z,2.55
2023-03-26T18:56:20.958Z,2.47
2023-03-26T18:58:51.193Z,2.50
2023-03-26T19:01:25.336Z,2.60
2023-03-26T19:03:54.079Z,2.20
2023-03-26T19:06:21.575Z,2.40
2023-03-26T19:08:49.613Z,2.25
2023-03-26T19:13:44.224Z,2.40
2023-03-26T19:16:23.683Z,2.40
2023-03-26T19:18:51.656Z,2.45
2023-03-26T19:21:20.143Z,2.00
2023-03-26T19:23:48.076Z,2.00
2023-03-26T19:26:16.120Z,2.60
2023-03-26T19:31:16.427Z,2.20
2023-03-26T19:33:44.993Z,2.25
2023-03-26T19:36:15.625Z,2.33
2023-03-26T19:38:44.571Z,2.30
2023-03-26T19:41:25.633Z,2.17
2023-03-26T19:43:58.091Z,2.10
2023-03-26T19:46:26.111Z,2.40
2023-03-26T19:48:54.227Z,2.10
2023-03-26T19:53:53.032Z,2.05
2023-03-26T19:56:21.832Z,2.35
2023-03-26T19:58:50.260Z,1.80
2023-03-26T20:01:25.669Z,2.00
2023-03-26T20:03:54.924Z,2.10
2023-03-26T20:06:28.109Z,1.80
2023-03-26T20:09:05.495Z,2.10
2023-03-26T20:11:34.341Z,2.23
2023-03-26T20:14:02.081Z,2.28
2023-03-26T20:16:33.539Z,2.25
2023-03-26T20:19:02.498Z,2.10
2023-03-26T20:21:30.205Z,1.90
2023-03-26T20:23:57.468Z,1.85
2023-03-26T20:26:25.115Z,2.10
2023-03-26T20:28:53.448Z,1.63
2023-03-26T20:31:23.337Z,2.10
2023-03-26T20:33:51.792Z,1.90
2023-03-26T20:36:33.763Z,1.73
2023-03-26T20:39:02.546Z,2.10
2023-03-26T20:41:29.825Z,2.00
2023-03-26T20:43:57.061Z,1.97
2023-03-26T20:46:30.922Z,2.07
2023-03-26T20:48:59.852Z,1.80
2023-03-26T20:51:28.825Z,1.90
2023-03-26T20:53:56.389Z,1.95
2023-03-26T20:56:23.783Z,1.60
2023-03-26T20:59:09.772Z,1.95
2023-03-26T21:01:38.309Z,1.80
2023-03-26T21:04:05.831Z,1.70
2023-03-26T21:06:33.158Z,1.85
2023-03-26T21:09:02.915Z,1.90
2023-03-26T21:11:36.328Z,2.03
2023-03-26T21:14:23.696Z,1.85
2023-03-26T21:16:51.766Z,2.15
2023-03-26T21:21:57.667Z,1.88
2023-03-26T21:24:44.027Z,1.92
2023-03-26T21:27:14.123Z,1.80
2023-03-26T21:29:41.816Z,1.90
2023-03-26T21:32:10.980Z,1.67
2023-03-26T21:37:07.320Z,1.73
2023-03-26T21:39:34.962Z,1.73
2023-03-26T21:42:05.219Z,1.80
2023-03-26T21:44:33.188Z,1.88
2023-03-26T21:47:00.622Z,1.93
2023-03-26T21:49:28.126Z,1.65
2023-03-26T21:51:55.584Z,1.48
2023-03-26T21:54:30.800Z,1.70
2023-03-26T21:56:58.085Z,1.60
2023-03-26T21:59:28.433Z,1.90
2023-03-26T22:02:01.749Z,1.65
2023-03-26T22:04:37.267Z,1.73
2023-03-26T22:07:15.023Z,1.80
2023-03-26T22:09:43.555Z,1.50
2023-03-26T22:12:10.738Z,1.60
2023-03-26T22:14:38.684Z,1.73
2023-03-26T22:17:06.012Z,1.45
2023-03-26T22:19:34.469Z,1.83
2023-03-26T22:22:01.792Z,1.60
2023-03-26T22:24:29.062Z,1.70
2023-03-26T22:26:56.527Z,1.70
2023-03-26T22:29:23.921Z,1.90
2023-03-26T22:31:51.226Z,1.58
2023-03-26T22:34:19.732Z,1.87
2023-03-26T22:36:47.006Z,1.70
2023-03-26T22:39:14.332Z,1.70
2023-03-26T22:41:41.689Z,1.67
2023-03-26T22:44:19.971Z,1.53
2023-03-26T22:46:51.141Z,1.55
2023-03-26T22:49:18.953Z,1.67
2023-03-26T22:51:46.753Z,1.83
2023-03-26T22:54:14.515Z,1.73
2023-03-26T22:56:41.809Z,1.67
2023-03-26T22:59:09.233Z,1.50
2023-03-26T23:01:36.535Z,1.70
2023-03-26T23:04:03.870Z,1.70
2023-03-26T23:06:31.699Z,1.40
2023-03-26T23:08:58.964Z,1.25
2023-03-26T23:11:26.707Z,1.70
2023-03-26T23:13:53.958Z,1.73
2023-03-26T23:16:21.754Z,1.60
2023-03-26T23:18:49.356Z,1.88
2023-03-26T23:21:21.190Z,1.45
2023-03-26T23:23:49.211Z,1.63
2023-03-26T23:26:16.685Z,1.58
2023-03-26T23:28:43.925Z,1.55
2023-03-26T23:31:12.573Z,1.47
2023-03-26T23:33:46.622Z,1.50
2023-03-26T23:36:18.426Z,1.80
2023-03-26T23:38:46.739Z,1.70
2023-03-26T23:41:17.592Z,1.40
2023-03-26T23:43:54.312Z,1.40
2023-03-26T23:46:30.653Z,1.50
2023-03-26T23:49:03.721Z,1.45
2023-03-26T23:51:31.591Z,1.52
2023-03-26T23:53:59.717Z,1.60
2023-03-26T23:58:58.168Z,1.50
